sensor_id;sensor_type;location;lat;lon;timestamp;temperature;humidity
15638;DHT22;26604;53.596;10.042;2023-07-13T00:01:45;15.70;99.90
15638;DHT22;26604;53.596;10.042;2023-07-13T00:04:18;15.60;99.90
15638;DHT22;26604;53.596;10.042;2023-07-13T00:06:46;15.50;99.90
15638;DHT22;26604;53.596;10.042;2023-07-13T00:09:15;15.50;99.90
15638;DHT22;26604;53.596;10.042;2023-07-13T00:11:43;15.40;99.90
15638;DHT22;26604;53.596;10.042;2023-07-13T00:14:13;15.40;99.90
15638;DHT22;26604;53.596;10.042;2023-07-13T00:16:41;15.30;99.90
15638;DHT22;26604;53.596;10.042;2023-07-13T00:19:09;15.20;99.90
15638;DHT22;26604;53.596;10.042;2023-07-13T00:21:37;15.20;99.90
15638;DHT22;26604;53.596;10.042;2023-07-13T00:24:04;15.10;99.90
15638;DHT22;26604;53.596;10.042;2023-07-13T00:26:33;15.00;99.90
15638;DHT22;26604;53.596;10.042;2023-07-13T00:29:00;15.00;99.90
15638;DHT22;26604;53.596;10.042;2023-07-13T00:31:27;14.90;99.90
15638;DHT22;26604;53.596;10.042;2023-07-13T00:33:53;14.90;99.90
15638;DHT22;26604;53.596;10.042;2023-07-13T00:36:20;14.80;99.90
15638;DHT22;26604;53.596;10.042;2023-07-13T00:38:47;14.70;99.90
15638;DHT22;26604;53.596;10.042;2023-07-13T00:41:14;14.70;99.90
15638;DHT22;26604;53.596;10.042;2023-07-13T00:43:42;14.60;99.90
15638;DHT22;26604;53.596;10.042;2023-07-13T00:46:23;14.60;99.90
15638;DHT22;26604;53.596;10.042;2023-07-13T00:48:51;14.60;99.90
15638;DHT22;26604;53.596;10.042;2023-07-13T00:51:22;14.50;99.90
15638;DHT22;26604;53.596;10.042;2023-07-13T00:53:51;14.50;99.90
15638;DHT22;26604;53.596;10.042;2023-07-13T00:56:20;14.50;99.90
15638;DHT22;26604;53.596;10.042;2023-07-13T00:58:48;14.40;99.90
15638;DHT22;26604;53.596;10.042;2023-07-13T01:01:16;14.40;99.90
15638;DHT22;26604;53.596;10.042;2023-07-13T01:03:43;14.40;99.90
15638;DHT22;26604;53.596;10.042;2023-07-13T01:06:10;14.40;99.90
15638;DHT22;26604;53.596;10.042;2023-07-13T01:08:37;14.40;99.90
15638;DHT22;26604;53.596;10.042;2023-07-13T01:11:05;14.30;99.90
15638;DHT22;26604;53.596;10.042;2023-07-13T01:13:33;14.30;99.90
15638;DHT22;26604;53.596;10.042;2023-07-13T01:16:05;14.30;99.90
15638;DHT22;26604;53.596;10.042;2023-07-13T01:18:38;14.30;99.90
15638;DHT22;26604;53.596;10.042;2023-07-13T01:21:07;14.30;99.90
15638;DHT22;26604;53.596;10.042;2023-07-13T01:23:33;14.30;99.90
15638;DHT22;26604;53.596;10.042;2023-07-13T01:26:00;14.30;99.90
15638;DHT22;26604;53.596;10.042;2023-07-13T01:28:28;14.30;99.90
15638;DHT22;26604;53.596;10.042;2023-07-13T01:30:56;14.30;99.90
15638;DHT22;26604;53.596;10.042;2023-07-13T01:33:24;14.30;99.90
15638;DHT22;26604;53.596;10.042;2023-07-13T01:35:51;14.40;99.90
15638;DHT22;26604;53.596;10.042;2023-07-13T01:38:21;14.40;99.90
15638;DHT22;26604;53.596;10.042;2023-07-13T01:40:49;14.40;99.90
15638;DHT22;26604;53.596;10.042;2023-07-13T01:43:17;14.40;99.90
15638;DHT22;26604;53.596;10.042;2023-07-13T01:45:44;14.40;99.90
15638;DHT22;26604;53.596;10.042;2023-07-13T01:48:12;14.40;99.90
15638;DHT22;26604;53.596;10.042;2023-07-13T01:50:39;14.40;99.90
15638;DHT22;26604;53.596;10.042;2023-07-13T01:53:06;14.40;99.90
15638;DHT22;26604;53.596;10.042;2023-07-13T01:55:35;14.40;99.90
15638;DHT22;26604;53.596;10.042;2023-07-13T01:58:03;14.40;99.90
15638;DHT22;26604;53.596;10.042;2023-07-13T02:00:31;14.30;99.90
15638;DHT22;26604;53.596;10.042;2023-07-13T02:02:58;14.30;99.90
15638;DHT22;26604;53.596;10.042;2023-07-13T02:05:25;14.30;99.90
15638;DHT22;26604;53.596;10.042;2023-07-13T02:07:52;14.30;99.90
15638;DHT22;26604;53.596;10.042;2023-07-13T02:10:19;14.30;99.90
15638;DHT22;26604;53.596;10.042;2023-07-13T02:12:48;14.20;99.90
15638;DHT22;26604;53.596;10.042;2023-07-13T02:15:16;14.20;99.90
15638;DHT22;26604;53.596;10.042;2023-07-13T02:17:43;14.20;99.90
15638;DHT22;26604;53.596;10.042;2023-07-13T02:20:10;14.20;99.90
15638;DHT22;26604;53.596;10.042;2023-07-13T02:22:37;14.20;99.90
15638;DHT22;26604;53.596;10.042;2023-07-13T02:25:04;14.20;99.90
15638;DHT22;26604;53.596;10.042;2023-07-13T02:27:31;14.20;99.90
15638;DHT22;26604;53.596;10.042;2023-07-13T02:29:59;14.20;99.90
15638;DHT22;26604;53.596;10.042;2023-07-13T02:32:26;14.20;99.90
15638;DHT22;26604;53.596;10.042;2023-07-13T02:34:53;14.10;99.90
15638;DHT22;26604;53.596;10.042;2023-07-13T02:37:20;14.10;99.90
15638;DHT22;26604;53.596;10.042;2023-07-13T02:39:47;14.10;99.90
15638;DHT22;26604;53.596;10.042;2023-07-13T02:42:14;14.10;99.90
15638;DHT22;26604;53.596;10.042;2023-07-13T02:44:41;14.10;99.90
15638;DHT22;26604;53.596;10.042;2023-07-13T02:47:09;14.10;99.90
15638;DHT22;26604;53.596;10.042;2023-07-13T02:49:36;14.10;99.90
15638;DHT22;26604;53.596;10.042;2023-07-13T02:52:04;14.10;99.90
15638;DHT22;26604;53.596;10.042;2023-07-13T02:54:31;14.10;99.90
15638;DHT22;26604;53.596;10.042;2023-07-13T02:56:58;14.00;99.90
15638;DHT22;26604;53.596;10.042;2023-07-13T02:59:25;14.00;99.90
15638;DHT22;26604;53.596;10.042;2023-07-13T03:01:52;14.00;99.90
15638;DHT22;26604;53.596;10.042;2023-07-13T03:04:20;14.00;99.90
15638;DHT22;26604;53.596;10.042;2023-07-13T03:06:47;14.00;99.90
15638;DHT22;26604;53.596;10.042;2023-07-13T03:09:14;14.00;99.90
15638;DHT22;26604;53.596;10.042;2023-07-13T03:11:41;14.00;99.90
15638;DHT22;26604;53.596;10.042;2023-07-13T03:14:08;14.00;99.90
15638;DHT22;26604;53.596;10.042;2023-07-13T03:16:35;14.00;99.90
15638;DHT22;26604;53.596;10.042;2023-07-13T03:19:02;14.10;99.90
15638;DHT22;26604;53.596;10.042;2023-07-13T03:21:30;14.10;99.90
15638;DHT22;26604;53.596;10.042;2023-07-13T03:23:57;14.10;99.90
15638;DHT22;26604;53.596;10.042;2023-07-13T03:26:24;14.10;99.90
15638;DHT22;26604;53.596;10.042;2023-07-13T03:28:51;14.10;99.90
15638;DHT22;26604;53.596;10.042;2023-07-13T03:31:22;14.10;99.90
15638;DHT22;26604;53.596;10.042;2023-07-13T03:33:50;14.10;99.90
15638;DHT22;26604;53.596;10.042;2023-07-13T03:36:19;14.20;99.90
15638;DHT22;26604;53.596;10.042;2023-07-13T03:38:49;14.20;99.90
15638;DHT22;26604;53.596;10.042;2023-07-13T03:41:16;14.20;99.90
15638;DHT22;26604;53.596;10.042;2023-07-13T03:43:43;14.20;99.90
15638;DHT22;26604;53.596;10.042;2023-07-13T03:46:10;14.20;99.90
15638;DHT22;26604;53.596;10.042;2023-07-13T03:48:40;14.20;99.90
15638;DHT22;26604;53.596;10.042;2023-07-13T03:51:08;14.30;99.90
15638;DHT22;26604;53.596;10.042;2023-07-13T03:53:38;14.30;99.90
15638;DHT22;26604;53.596;10.042;2023-07-13T03:56:07;14.30;99.90
15638;DHT22;26604;53.596;10.042;2023-07-13T03:58:35;14.30;99.90
15638;DHT22;26604;53.596;10.042;2023-07-13T04:01:04;14.40;99.90
15638;DHT22;26604;53.596;10.042;2023-07-13T04:03:33;14.40;99.90
15638;DHT22;26604;53.596;10.042;2023-07-13T04:06:00;14.40;99.90
15638;DHT22;26604;53.596;10.042;2023-07-13T04:08:28;14.50;99.90
15638;DHT22;26604;53.596;10.042;2023-07-13T04:10:56;14.50;99.90
15638;DHT22;26604;53.596;10.042;2023-07-13T04:13:25;14.60;99.90
15638;DHT22;26604;53.596;10.042;2023-07-13T04:15:53;14.60;99.90
15638;DHT22;26604;53.596;10.042;2023-07-13T04:18:20;14.60;99.90
15638;DHT22;26604;53.596;10.042;2023-07-13T04:20:48;14.70;99.90
15638;DHT22;26604;53.596;10.042;2023-07-13T04:23:16;14.80;99.90
15638;DHT22;26604;53.596;10.042;2023-07-13T04:25:44;14.80;99.90
15638;DHT22;26604;53.596;10.042;2023-07-13T04:28:11;14.80;99.90
15638;DHT22;26604;53.596;10.042;2023-07-13T04:30:42;14.90;99.90
15638;DHT22;26604;53.596;10.042;2023-07-13T04:33:09;14.90;99.90
15638;DHT22;26604;53.596;10.042;2023-07-13T04:35:35;15.00;99.90
15638;DHT22;26604;53.596;10.042;2023-07-13T04:38:03;15.10;99.90
15638;DHT22;26604;53.596;10.042;2023-07-13T04:40:31;15.10;99.90
15638;DHT22;26604;53.596;10.042;2023-07-13T04:42:58;15.20;99.90
15638;DHT22;26604;53.596;10.042;2023-07-13T04:45:25;15.30;99.90
15638;DHT22;26604;53.596;10.042;2023-07-13T04:47:53;15.30;99.90
15638;DHT22;26604;53.596;10.042;2023-07-13T04:50:20;15.40;99.90
15638;DHT22;26604;53.596;10.042;2023-07-13T04:52:49;15.50;99.90
15638;DHT22;26604;53.596;10.042;2023-07-13T04:55:16;15.60;99.90
15638;DHT22;26604;53.596;10.042;2023-07-13T04:57:43;15.70;99.90
15638;DHT22;26604;53.596;10.042;2023-07-13T05:00:12;15.80;99.90
15638;DHT22;26604;53.596;10.042;2023-07-13T05:02:39;16.00;99.90
15638;DHT22;26604;53.596;10.042;2023-07-13T05:05:08;16.30;99.90
15638;DHT22;26604;53.596;10.042;2023-07-13T05:07:35;17.80;99.90
15638;DHT22;26604;53.596;10.042;2023-07-13T05:10:02;18.40;99.90
15638;DHT22;26604;53.596;10.042;2023-07-13T05:12:30;18.30;99.90
15638;DHT22;26604;53.596;10.042;2023-07-13T05:15:08;18.20;99.90
15638;DHT22;26604;53.596;10.042;2023-07-13T05:17:38;18.10;99.90
15638;DHT22;26604;53.596;10.042;2023-07-13T05:20:08;18.00;99.90
15638;DHT22;26604;53.596;10.042;2023-07-13T05:22:35;18.20;99.90
15638;DHT22;26604;53.596;10.042;2023-07-13T05:25:05;18.30;99.90
15638;DHT22;26604;53.596;10.042;2023-07-13T05:27:32;18.40;99.90
15638;DHT22;26604;53.596;10.042;2023-07-13T05:30:00;18.50;99.90
15638;DHT22;26604;53.596;10.042;2023-07-13T05:32:27;18.60;99.90
15638;DHT22;26604;53.596;10.042;2023-07-13T05:34:54;18.90;99.90
15638;DHT22;26604;53.596;10.042;2023-07-13T05:37:22;19.20;99.90
15638;DHT22;26604;53.596;10.042;2023-07-13T05:39:50;19.50;99.90
15638;DHT22;26604;53.596;10.042;2023-07-13T05:42:17;19.60;99.90
15638;DHT22;26604;53.596;10.042;2023-07-13T05:44:44;19.60;99.90
15638;DHT22;26604;53.596;10.042;2023-07-13T05:47:11;19.50;99.90
15638;DHT22;26604;53.596;10.042;2023-07-13T05:49:39;19.30;99.90
15638;DHT22;26604;53.596;10.042;2023-07-13T05:52:09;19.20;99.90
15638;DHT22;26604;53.596;10.042;2023-07-13T05:54:37;19.10;99.90
15638;DHT22;26604;53.596;10.042;2023-07-13T05:57:04;19.00;99.90
15638;DHT22;26604;53.596;10.042;2023-07-13T05:59:31;19.10;99.90
15638;DHT22;26604;53.596;10.042;2023-07-13T06:01:58;19.10;99.90
15638;DHT22;26604;53.596;10.042;2023-07-13T06:04:25;19.20;99.90
15638;DHT22;26604;53.596;10.042;2023-07-13T06:06:52;19.30;99.90
15638;DHT22;26604;53.596;10.042;2023-07-13T06:09:19;19.30;99.90
15638;DHT22;26604;53.596;10.042;2023-07-13T06:11:47;19.30;99.90
15638;DHT22;26604;53.596;10.042;2023-07-13T06:14:14;19.40;99.90
15638;DHT22;26604;53.596;10.042;2023-07-13T06:16:41;19.30;99.90
15638;DHT22;26604;53.596;10.042;2023-07-13T06:19:08;19.30;99.90
15638;DHT22;26604;53.596;10.042;2023-07-13T06:21:35;19.30;99.90
15638;DHT22;26604;53.596;10.042;2023-07-13T06:24:02;19.30;99.90
15638;DHT22;26604;53.596;10.042;2023-07-13T06:26:29;19.30;99.90
15638;DHT22;26604;53.596;10.042;2023-07-13T06:28:57;19.40;99.90
15638;DHT22;26604;53.596;10.042;2023-07-13T06:31:26;19.40;99.90
15638;DHT22;26604;53.596;10.042;2023-07-13T06:33:53;19.40;99.90
15638;DHT22;26604;53.596;10.042;2023-07-13T06:36:20;19.50;99.90
15638;DHT22;26604;53.596;10.042;2023-07-13T06:38:47;19.70;99.90
15638;DHT22;26604;53.596;10.042;2023-07-13T06:41:14;19.80;99.90
15638;DHT22;26604;53.596;10.042;2023-07-13T06:43:41;19.90;99.90
15638;DHT22;26604;53.596;10.042;2023-07-13T06:46:09;20.10;99.90
15638;DHT22;26604;53.596;10.042;2023-07-13T06:48:36;20.20;99.90
15638;DHT22;26604;53.596;10.042;2023-07-13T06:51:03;20.30;99.90
15638;DHT22;26604;53.596;10.042;2023-07-13T06:53:32;20.50;99.90
15638;DHT22;26604;53.596;10.042;2023-07-13T06:55:59;20.70;99.90
15638;DHT22;26604;53.596;10.042;2023-07-13T06:58:26;20.90;99.90
15638;DHT22;26604;53.596;10.042;2023-07-13T07:00:53;21.00;99.90
15638;DHT22;26604;53.596;10.042;2023-07-13T07:03:21;21.20;99.90
15638;DHT22;26604;53.596;10.042;2023-07-13T07:05:48;21.30;99.90
15638;DHT22;26604;53.596;10.042;2023-07-13T07:08:15;21.40;99.90
15638;DHT22;26604;53.596;10.042;2023-07-13T07:10:42;21.60;99.90
15638;DHT22;26604;53.596;10.042;2023-07-13T07:13:09;21.60;99.90
15638;DHT22;26604;53.596;10.042;2023-07-13T07:15:36;21.80;99.90
15638;DHT22;26604;53.596;10.042;2023-07-13T07:18:03;21.90;99.90
15638;DHT22;26604;53.596;10.042;2023-07-13T07:20:31;21.90;99.90
15638;DHT22;26604;53.596;10.042;2023-07-13T07:23:01;22.00;99.90
15638;DHT22;26604;53.596;10.042;2023-07-13T07:25:28;22.10;99.90
15638;DHT22;26604;53.596;10.042;2023-07-13T07:27:57;22.10;99.90
15638;DHT22;26604;53.596;10.042;2023-07-13T07:30:24;22.10;99.90
15638;DHT22;26604;53.596;10.042;2023-07-13T07:32:51;22.00;99.90
15638;DHT22;26604;53.596;10.042;2023-07-13T07:35:18;21.80;99.90
15638;DHT22;26604;53.596;10.042;2023-07-13T07:37:46;21.70;99.90
15638;DHT22;26604;53.596;10.042;2023-07-13T07:40:13;21.60;99.90
15638;DHT22;26604;53.596;10.042;2023-07-13T07:42:40;21.60;99.90
15638;DHT22;26604;53.596;10.042;2023-07-13T07:45:08;21.60;99.90
15638;DHT22;26604;53.596;10.042;2023-07-13T07:47:36;21.50;99.90
15638;DHT22;26604;53.596;10.042;2023-07-13T07:50:04;21.40;99.90
15638;DHT22;26604;53.596;10.042;2023-07-13T07:52:31;21.30;99.90
15638;DHT22;26604;53.596;10.042;2023-07-13T07:54:59;21.40;99.90
15638;DHT22;26604;53.596;10.042;2023-07-13T07:57:31;21.50;99.90
15638;DHT22;26604;53.596;10.042;2023-07-13T07:59:58;21.70;99.90
15638;DHT22;26604;53.596;10.042;2023-07-13T08:02:25;21.90;99.90
15638;DHT22;26604;53.596;10.042;2023-07-13T08:04:52;22.00;99.90
15638;DHT22;26604;53.596;10.042;2023-07-13T08:07:19;22.00;99.90
15638;DHT22;26604;53.596;10.042;2023-07-13T08:09:46;22.20;99.90
15638;DHT22;26604;53.596;10.042;2023-07-13T08:12:19;22.10;99.90
15638;DHT22;26604;53.596;10.042;2023-07-13T08:14:50;21.90;99.90
15638;DHT22;26604;53.596;10.042;2023-07-13T08:17:19;21.90;99.90
15638;DHT22;26604;53.596;10.042;2023-07-13T08:19:46;22.10;99.90
15638;DHT22;26604;53.596;10.042;2023-07-13T08:22:14;22.20;99.90
15638;DHT22;26604;53.596;10.042;2023-07-13T08:24:43;22.50;99.90
15638;DHT22;26604;53.596;10.042;2023-07-13T08:27:10;22.80;99.90
15638;DHT22;26604;53.596;10.042;2023-07-13T08:29:41;22.90;99.90
15638;DHT22;26604;53.596;10.042;2023-07-13T08:32:08;23.10;99.90
15638;DHT22;26604;53.596;10.042;2023-07-13T08:34:36;23.10;99.90
15638;DHT22;26604;53.596;10.042;2023-07-13T08:37:03;23.30;99.90
15638;DHT22;26604;53.596;10.042;2023-07-13T08:39:30;23.50;99.90
15638;DHT22;26604;53.596;10.042;2023-07-13T08:42:00;23.70;99.90
15638;DHT22;26604;53.596;10.042;2023-07-13T08:44:38;23.80;99.90
15638;DHT22;26604;53.596;10.042;2023-07-13T08:47:08;23.70;99.90
15638;DHT22;26604;53.596;10.042;2023-07-13T08:49:37;23.30;99.90
15638;DHT22;26604;53.596;10.042;2023-07-13T08:52:10;22.80;99.90
15638;DHT22;26604;53.596;10.042;2023-07-13T08:54:43;22.50;99.90
15638;DHT22;26604;53.596;10.042;2023-07-13T08:57:14;22.30;99.90
15638;DHT22;26604;53.596;10.042;2023-07-13T08:59:41;22.30;99.90
15638;DHT22;26604;53.596;10.042;2023-07-13T09:02:25;22.30;99.90
15638;DHT22;26604;53.596;10.042;2023-07-13T09:04:56;22.20;99.90
15638;DHT22;26604;53.596;10.042;2023-07-13T09:07:33;22.20;99.90
15638;DHT22;26604;53.596;10.042;2023-07-13T09:10:13;22.10;99.90
15638;DHT22;26604;53.596;10.042;2023-07-13T09:12:50;22.10;99.90
15638;DHT22;26604;53.596;10.042;2023-07-13T09:15:28;22.30;99.90
15638;DHT22;26604;53.596;10.042;2023-07-13T09:18:01;22.70;99.90
15638;DHT22;26604;53.596;10.042;2023-07-13T09:20:41;22.80;99.90
15638;DHT22;26604;53.596;10.042;2023-07-13T09:23:14;22.90;99.90
15638;DHT22;26604;53.596;10.042;2023-07-13T09:25:42;23.10;99.90
15638;DHT22;26604;53.596;10.042;2023-07-13T09:28:15;23.10;99.90
15638;DHT22;26604;53.596;10.042;2023-07-13T09:30:46;23.10;99.90
15638;DHT22;26604;53.596;10.042;2023-07-13T09:33:16;23.00;99.90
15638;DHT22;26604;53.596;10.042;2023-07-13T09:35:45;23.20;99.90
15638;DHT22;26604;53.596;10.042;2023-07-13T09:38:14;23.20;99.90
15638;DHT22;26604;53.596;10.042;2023-07-13T09:40:53;23.20;99.90
15638;DHT22;26604;53.596;10.042;2023-07-13T09:43:24;23.40;99.90
15638;DHT22;26604;53.596;10.042;2023-07-13T09:45:52;23.70;99.90
15638;DHT22;26604;53.596;10.042;2023-07-13T09:48:20;23.80;99.90
15638;DHT22;26604;53.596;10.042;2023-07-13T09:50:47;23.70;99.90
15638;DHT22;26604;53.596;10.042;2023-07-13T09:53:16;23.90;99.90
15638;DHT22;26604;53.596;10.042;2023-07-13T09:55:45;24.10;99.90
15638;DHT22;26604;53.596;10.042;2023-07-13T09:58:14;24.20;99.90
15638;DHT22;26604;53.596;10.042;2023-07-13T10:00:42;24.10;94.20
15638;DHT22;26604;53.596;10.042;2023-07-13T10:03:16;23.90;99.90
15638;DHT22;26604;53.596;10.042;2023-07-13T10:05:46;23.80;98.30
15638;DHT22;26604;53.596;10.042;2023-07-13T10:08:18;23.40;99.90
15638;DHT22;26604;53.596;10.042;2023-07-13T10:10:46;23.20;97.40
15638;DHT22;26604;53.596;10.042;2023-07-13T10:13:29;23.20;99.90
15638;DHT22;26604;53.596;10.042;2023-07-13T10:15:57;23.10;98.50
15638;DHT22;26604;53.596;10.042;2023-07-13T10:18:25;23.20;99.90
15638;DHT22;26604;53.596;10.042;2023-07-13T10:21:04;23.50;99.10
15638;DHT22;26604;53.596;10.042;2023-07-13T10:23:36;23.80;97.90
15638;DHT22;26604;53.596;10.042;2023-07-13T10:26:03;24.10;85.90
15638;DHT22;26604;53.596;10.042;2023-07-13T10:28:35;24.10;81.10
15638;DHT22;26604;53.596;10.042;2023-07-13T10:31:05;23.90;85.70
15638;DHT22;26604;53.596;10.042;2023-07-13T10:33:35;23.70;84.80
15638;DHT22;26604;53.596;10.042;2023-07-13T10:36:12;23.50;91.00
15638;DHT22;26604;53.596;10.042;2023-07-13T10:38:40;23.40;85.00
15638;DHT22;26604;53.596;10.042;2023-07-13T10:41:11;23.50;80.40
15638;DHT22;26604;53.596;10.042;2023-07-13T10:43:42;23.50;78.30
15638;DHT22;26604;53.596;10.042;2023-07-13T10:46:12;23.60;79.20
15638;DHT22;26604;53.596;10.042;2023-07-13T10:48:40;23.70;72.50
15638;DHT22;26604;53.596;10.042;2023-07-13T10:51:13;23.60;68.90
15638;DHT22;26604;53.596;10.042;2023-07-13T10:53:41;23.60;63.60
15638;DHT22;26604;53.596;10.042;2023-07-13T10:56:22;23.60;74.60
15638;DHT22;26604;53.596;10.042;2023-07-13T10:59:02;23.80;67.10
15638;DHT22;26604;53.596;10.042;2023-07-13T11:01:40;24.00;61.80
15638;DHT22;26604;53.596;10.042;2023-07-13T11:04:11;24.10;63.80
15638;DHT22;26604;53.596;10.042;2023-07-13T11:06:42;24.10;57.90
15638;DHT22;26604;53.596;10.042;2023-07-13T11:09:35;24.20;56.70
15638;DHT22;26604;53.596;10.042;2023-07-13T11:12:08;24.10;54.60
15638;DHT22;26604;53.596;10.042;2023-07-13T11:14:43;24.20;56.90
15638;DHT22;26604;53.596;10.042;2023-07-13T11:17:35;24.30;56.40
15638;DHT22;26604;53.596;10.042;2023-07-13T11:20:19;24.50;53.20
15638;DHT22;26604;53.596;10.042;2023-07-13T11:22:50;24.90;53.50
15638;DHT22;26604;53.596;10.042;2023-07-13T11:25:26;25.20;52.10
15638;DHT22;26604;53.596;10.042;2023-07-13T11:28:15;25.30;50.80
15638;DHT22;26604;53.596;10.042;2023-07-13T11:30:44;25.20;49.00
15638;DHT22;26604;53.596;10.042;2023-07-13T11:33:16;25.30;51.40
15638;DHT22;26604;53.596;10.042;2023-07-13T11:35:53;25.50;47.90
15638;DHT22;26604;53.596;10.042;2023-07-13T11:38:36;25.50;44.50
15638;DHT22;26604;53.596;10.042;2023-07-13T11:41:24;25.50;45.30
15638;DHT22;26604;53.596;10.042;2023-07-13T11:43:55;25.50;41.30
15638;DHT22;26604;53.596;10.042;2023-07-13T11:46:26;25.40;39.30
15638;DHT22;26604;53.596;10.042;2023-07-13T11:48:53;25.10;42.80
15638;DHT22;26604;53.596;10.042;2023-07-13T11:51:23;24.90;45.50
15638;DHT22;26604;53.596;10.042;2023-07-13T11:53:54;24.60;50.10
15638;DHT22;26604;53.596;10.042;2023-07-13T11:56:24;24.40;52.50
15638;DHT22;26604;53.596;10.042;2023-07-13T11:58:55;24.20;51.70
15638;DHT22;26604;53.596;10.042;2023-07-13T12:01:24;24.10;50.00
15638;DHT22;26604;53.596;10.042;2023-07-13T12:03:55;23.90;53.30
15638;DHT22;26604;53.596;10.042;2023-07-13T12:06:26;23.80;52.80
15638;DHT22;26604;53.596;10.042;2023-07-13T12:08:57;23.70;58.00
15638;DHT22;26604;53.596;10.042;2023-07-13T12:11:25;23.60;60.10
15638;DHT22;26604;53.596;10.042;2023-07-13T12:13:52;23.60;58.00
15638;DHT22;26604;53.596;10.042;2023-07-13T12:16:28;23.50;60.00
15638;DHT22;26604;53.596;10.042;2023-07-13T12:18:59;23.50;66.00
15638;DHT22;26604;53.596;10.042;2023-07-13T12:21:31;23.10;81.40
15638;DHT22;26604;53.596;10.042;2023-07-13T12:24:00;22.00;99.90
15638;DHT22;26604;53.596;10.042;2023-07-13T12:26:30;19.10;99.90
15638;DHT22;26604;53.596;10.042;2023-07-13T12:28:59;18.60;99.90
15638;DHT22;26604;53.596;10.042;2023-07-13T12:31:33;16.20;99.90
15638;DHT22;26604;53.596;10.042;2023-07-13T12:34:02;15.70;99.90
15638;DHT22;26604;53.596;10.042;2023-07-13T12:36:33;15.50;99.90
15638;DHT22;26604;53.596;10.042;2023-07-13T12:39:09;15.20;99.90
15638;DHT22;26604;53.596;10.042;2023-07-13T12:41:39;15.60;99.90
15638;DHT22;26604;53.596;10.042;2023-07-13T12:44:10;15.70;99.90
15638;DHT22;26604;53.596;10.042;2023-07-13T12:46:38;16.00;99.90
15638;DHT22;26604;53.596;10.042;2023-07-13T12:49:07;16.30;99.90
15638;DHT22;26604;53.596;10.042;2023-07-13T12:51:37;16.60;99.90
15638;DHT22;26604;53.596;10.042;2023-07-13T12:54:16;17.00;99.90
15638;DHT22;26604;53.596;10.042;2023-07-13T12:56:44;17.40;99.90
15638;DHT22;26604;53.596;10.042;2023-07-13T12:59:19;18.00;99.90
15638;DHT22;26604;53.596;10.042;2023-07-13T13:01:47;18.30;99.90
15638;DHT22;26604;53.596;10.042;2023-07-13T13:04:16;18.40;99.90
15638;DHT22;26604;53.596;10.042;2023-07-13T13:06:47;18.50;99.90
15638;DHT22;26604;53.596;10.042;2023-07-13T13:09:16;18.30;99.90
15638;DHT22;26604;53.596;10.042;2023-07-13T13:11:44;18.40;99.90
15638;DHT22;26604;53.596;10.042;2023-07-13T13:14:13;18.30;99.90
15638;DHT22;26604;53.596;10.042;2023-07-13T13:16:47;18.30;99.90
15638;DHT22;26604;53.596;10.042;2023-07-13T13:19:17;18.30;99.90
15638;DHT22;26604;53.596;10.042;2023-07-13T13:21:45;18.00;99.90
15638;DHT22;26604;53.596;10.042;2023-07-13T13:24:15;17.90;99.90
15638;DHT22;26604;53.596;10.042;2023-07-13T13:26:43;18.00;99.90
15638;DHT22;26604;53.596;10.042;2023-07-13T13:29:15;18.50;99.90
15638;DHT22;26604;53.596;10.042;2023-07-13T13:31:43;18.50;99.90
15638;DHT22;26604;53.596;10.042;2023-07-13T13:34:14;18.60;99.90
15638;DHT22;26604;53.596;10.042;2023-07-13T13:36:42;18.90;99.90
15638;DHT22;26604;53.596;10.042;2023-07-13T13:39:19;19.20;99.90
15638;DHT22;26604;53.596;10.042;2023-07-13T13:41:48;19.30;99.90
15638;DHT22;26604;53.596;10.042;2023-07-13T13:44:16;19.40;99.90
15638;DHT22;26604;53.596;10.042;2023-07-13T13:46:45;19.50;99.90
15638;DHT22;26604;53.596;10.042;2023-07-13T13:49:14;19.70;99.90
15638;DHT22;26604;53.596;10.042;2023-07-13T13:51:42;19.80;99.90
15638;DHT22;26604;53.596;10.042;2023-07-13T13:54:12;19.80;99.90
15638;DHT22;26604;53.596;10.042;2023-07-13T13:56:41;19.50;99.90
15638;DHT22;26604;53.596;10.042;2023-07-13T13:59:08;19.60;99.90
15638;DHT22;26604;53.596;10.042;2023-07-13T14:01:36;19.70;99.90
15638;DHT22;26604;53.596;10.042;2023-07-13T14:04:03;18.80;99.90
15638;DHT22;26604;53.596;10.042;2023-07-13T14:06:31;18.70;99.90
15638;DHT22;26604;53.596;10.042;2023-07-13T14:08:59;18.90;99.90
15638;DHT22;26604;53.596;10.042;2023-07-13T14:11:25;19.00;99.90
15638;DHT22;26604;53.596;10.042;2023-07-13T14:13:56;19.20;99.90
15638;DHT22;26604;53.596;10.042;2023-07-13T14:16:33;19.20;99.90
15638;DHT22;26604;53.596;10.042;2023-07-13T14:19:00;18.70;99.90
15638;DHT22;26604;53.596;10.042;2023-07-13T14:21:29;19.00;99.90
15638;DHT22;26604;53.596;10.042;2023-07-13T14:23:56;19.10;99.90
15638;DHT22;26604;53.596;10.042;2023-07-13T14:26:25;19.40;99.90
15638;DHT22;26604;53.596;10.042;2023-07-13T14:28:55;19.80;99.90
15638;DHT22;26604;53.596;10.042;2023-07-13T14:31:25;19.90;99.90
15638;DHT22;26604;53.596;10.042;2023-07-13T14:33:54;20.10;99.90
15638;DHT22;26604;53.596;10.042;2023-07-13T14:36:26;19.90;99.90
15638;DHT22;26604;53.596;10.042;2023-07-13T14:38:55;19.60;99.90
15638;DHT22;26604;53.596;10.042;2023-07-13T14:41:22;19.60;99.90
15638;DHT22;26604;53.596;10.042;2023-07-13T14:43:49;20.20;99.90
15638;DHT22;26604;53.596;10.042;2023-07-13T14:46:28;19.70;99.90
15638;DHT22;26604;53.596;10.042;2023-07-13T14:49:01;19.20;99.90
15638;DHT22;26604;53.596;10.042;2023-07-13T14:51:29;19.00;99.90
15638;DHT22;26604;53.596;10.042;2023-07-13T14:53:57;19.00;99.90
15638;DHT22;26604;53.596;10.042;2023-07-13T14:56:25;18.90;99.90
15638;DHT22;26604;53.596;10.042;2023-07-13T14:58:52;18.60;99.90
15638;DHT22;26604;53.596;10.042;2023-07-13T15:01:20;18.40;99.90
15638;DHT22;26604;53.596;10.042;2023-07-13T15:03:51;18.60;99.90
15638;DHT22;26604;53.596;10.042;2023-07-13T15:06:19;18.90;99.90
15638;DHT22;26604;53.596;10.042;2023-07-13T15:08:46;18.80;99.90
15638;DHT22;26604;53.596;10.042;2023-07-13T15:11:14;19.00;99.90
15638;DHT22;26604;53.596;10.042;2023-07-13T15:13:41;18.70;99.90
15638;DHT22;26604;53.596;10.042;2023-07-13T15:16:15;18.90;99.90
15638;DHT22;26604;53.596;10.042;2023-07-13T15:18:44;19.30;99.90
15638;DHT22;26604;53.596;10.042;2023-07-13T15:21:17;19.60;99.90
15638;DHT22;26604;53.596;10.042;2023-07-13T15:23:45;18.90;99.90
15638;DHT22;26604;53.596;10.042;2023-07-13T15:26:13;18.60;99.90
15638;DHT22;26604;53.596;10.042;2023-07-13T15:28:41;18.30;99.90